sensor_id;sensor_type;location;lat;lon;timestamp;temperature;humidity
72928;SHT30;61071;51.618;19.388;2023-04-03T00:00:29;1.18;76.66
72928;SHT30;61071;51.618;19.388;2023-04-03T00:02:55;1.13;76.42
72928;SHT30;61071;51.618;19.388;2023-04-03T00:05:21;1.09;77.13
72928;SHT30;61071;51.618;19.388;2023-04-03T00:07:47;1.10;76.06
72928;SHT30;61071;51.618;19.388;2023-04-03T00:10:12;1.12;76.39
72928;SHT30;61071;51.618;19.388;2023-04-03T00:12:39;1.06;76.48
72928;SHT30;61071;51.618;19.388;2023-04-03T00:15:05;0.98;76.60
72928;SHT30;61071;51.618;19.388;2023-04-03T00:17:31;1.03;76.32
72928;SHT30;61071;51.618;19.388;2023-04-03T00:19:56;1.05;76.25
72928;SHT30;61071;51.618;19.388;2023-04-03T00:22:23;0.98;76.96
72928;SHT30;61071;51.618;19.388;2023-04-03T00:24:49;0.92;76.33
72928;SHT30;61071;51.618;19.388;2023-04-03T00:27:14;1.05;76.29
72928;SHT30;61071;51.618;19.388;2023-04-03T00:29:41;0.96;76.23
72928;SHT30;61071;51.618;19.388;2023-04-03T00:32:06;1.05;76.15
72928;SHT30;61071;51.618;19.388;2023-04-03T00:34:32;1.03;75.39
72928;SHT30;61071;51.618;19.388;2023-04-03T00:36:58;1.03;75.86
72928;SHT30;61071;51.618;19.388;2023-04-03T00:39:23;0.96;75.46
72928;SHT30;61071;51.618;19.388;2023-04-03T00:41:49;0.89;76.26
72928;SHT30;61071;51.618;19.388;2023-04-03T00:47:11;0.95;75.02
72928;SHT30;61071;51.618;19.388;2023-04-03T00:49:38;0.88;75.50
72928;SHT30;61071;51.618;19.388;2023-04-03T00:52:10;0.89;74.78
72928;SHT30;61071;51.618;19.388;2023-04-03T00:54:38;0.89;74.95
72928;SHT30;61071;51.618;19.388;2023-04-03T00:57:07;0.85;74.78
72928;SHT30;61071;51.618;19.388;2023-04-03T00:59:39;0.75;74.99
72928;SHT30;61071;51.618;19.388;2023-04-03T01:02:06;0.70;75.06
72928;SHT30;61071;51.618;19.388;2023-04-03T01:04:32;0.75;75.27
72928;SHT30;61071;51.618;19.388;2023-04-03T01:07:05;0.62;74.82
72928;SHT30;61071;51.618;19.388;2023-04-03T01:09:31;0.81;74.77
72928;SHT30;61071;51.618;19.388;2023-04-03T01:12:30;0.58;74.76
72928;SHT30;61071;51.618;19.388;2023-04-03T01:15:14;0.56;75.63
72928;SHT30;61071;51.618;19.388;2023-04-03T01:17:51;0.44;75.24
72928;SHT30;61071;51.618;19.388;2023-04-03T01:25:45;0.32;75.12
72928;SHT30;61071;51.618;19.388;2023-04-03T01:33:16;0.20;75.44
72928;SHT30;61071;51.618;19.388;2023-04-03T01:35:42;0.23;76.02
72928;SHT30;61071;51.618;19.388;2023-04-03T01:38:08;0.17;76.14
72928;SHT30;61071;51.618;19.388;2023-04-03T01:40:33;0.10;75.77
72928;SHT30;61071;51.618;19.388;2023-04-03T01:42:59;0.19;75.91
72928;SHT30;61071;51.618;19.388;2023-04-03T01:45:25;0.10;76.13
72928;SHT30;61071;51.618;19.388;2023-04-03T01:47:50;0.09;76.02
72928;SHT30;61071;51.618;19.388;2023-04-03T01:50:16;-0.02;76.30
72928;SHT30;61071;51.618;19.388;2023-04-03T01:52:42;0.07;76.17
72928;SHT30;61071;51.618;19.388;2023-04-03T01:55:08;-0.08;76.52
72928;SHT30;61071;51.618;19.388;2023-04-03T01:57:34;-0.05;76.46
72928;SHT30;61071;51.618;19.388;2023-04-03T01:59:59;0.05;75.72
72928;SHT30;61071;51.618;19.388;2023-04-03T02:02:25;0.01;76.39
72928;SHT30;61071;51.618;19.388;2023-04-03T02:04:50;-0.02;76.33
72928;SHT30;61071;51.618;19.388;2023-04-03T02:07:16;-0.15;76.95
72928;SHT30;61071;51.618;19.388;2023-04-03T02:09:42;-0.12;76.29
72928;SHT30;61071;51.618;19.388;2023-04-03T02:12:07;-0.15;76.74
72928;SHT30;61071;51.618;19.388;2023-04-03T02:14:33;-0.12;76.01
72928;SHT30;61071;51.618;19.388;2023-04-03T02:17:01;-0.15;76.49
72928;SHT30;61071;51.618;19.388;2023-04-03T02:19:31;-0.25;76.55
72928;SHT30;61071;51.618;19.388;2023-04-03T02:21:57;-0.21;76.79
72928;SHT30;61071;51.618;19.388;2023-04-03T02:24:22;-0.33;76.57
72928;SHT30;61071;51.618;19.388;2023-04-03T02:26:48;-0.23;76.46
72928;SHT30;61071;51.618;19.388;2023-04-03T02:29:13;-0.22;76.17
72928;SHT30;61071;51.618;19.388;2023-04-03T02:31:39;-0.29;76.24
72928;SHT30;61071;51.618;19.388;2023-04-03T02:34:05;-0.33;76.50
72928;SHT30;61071;51.618;19.388;2023-04-03T02:36:31;-0.16;76.32
72928;SHT30;61071;51.618;19.388;2023-04-03T02:38:57;-0.37;76.54
72928;SHT30;61071;51.618;19.388;2023-04-03T02:41:22;-0.25;76.45
72928;SHT30;61071;51.618;19.388;2023-04-03T02:43:50;-0.25;76.22
72928;SHT30;61071;51.618;19.388;2023-04-03T02:46:16;-0.40;76.60
72928;SHT30;61071;51.618;19.388;2023-04-03T02:48:41;-0.48;77.23
72928;SHT30;61071;51.618;19.388;2023-04-03T02:51:07;-0.56;77.02
72928;SHT30;61071;51.618;19.388;2023-04-03T02:53:33;-0.44;76.44
72928;SHT30;61071;51.618;19.388;2023-04-03T02:55:58;-0.44;76.94
72928;SHT30;61071;51.618;19.388;2023-04-03T02:58:24;-0.40;76.65
72928;SHT30;61071;51.618;19.388;2023-04-03T03:00:50;-0.33;76.63
72928;SHT30;61071;51.618;19.388;2023-04-03T03:03:15;-0.37;76.40
72928;SHT30;61071;51.618;19.388;2023-04-03T03:05:41;-0.36;76.37
72928;SHT30;61071;51.618;19.388;2023-04-03T03:08:06;-0.39;76.57
72928;SHT30;61071;51.618;19.388;2023-04-03T03:10:32;-0.49;77.26
72928;SHT30;61071;51.618;19.388;2023-04-03T03:12:58;-0.52;77.13
72928;SHT30;61071;51.618;19.388;2023-04-03T03:15:23;-0.43;76.34
72928;SHT30;61071;51.618;19.388;2023-04-03T03:17:49;-0.32;76.04
72928;SHT30;61071;51.618;19.388;2023-04-03T03:20:15;-0.33;74.81
72928;SHT30;61071;51.618;19.388;2023-04-03T03:22:41;-0.33;75.18
72928;SHT30;61071;51.618;19.388;2023-04-03T03:25:07;-0.35;75.68
72928;SHT30;61071;51.618;19.388;2023-04-03T03:27:33;-0.49;75.63
72928;SHT30;61071;51.618;19.388;2023-04-03T03:29:58;-0.43;75.81
72928;SHT30;61071;51.618;19.388;2023-04-03T03:32:24;-0.37;75.32
72928;SHT30;61071;51.618;19.388;2023-04-03T03:34:50;-0.42;75.74
72928;SHT30;61071;51.618;19.388;2023-04-03T03:37:16;-0.40;75.94
72928;SHT30;61071;51.618;19.388;2023-04-03T03:39:42;-0.28;74.84
72928;SHT30;61071;51.618;19.388;2023-04-03T03:42:07;-0.36;75.32
72928;SHT30;61071;51.618;19.388;2023-04-03T03:44:33;-0.28;74.74
72928;SHT30;61071;51.618;19.388;2023-04-03T03:46:59;-0.29;75.06
72928;SHT30;61071;51.618;19.388;2023-04-03T03:49:25;-0.29;75.04
72928;SHT30;61071;51.618;19.388;2023-04-03T03:51:50;-0.46;75.62
72928;SHT30;61071;51.618;19.388;2023-04-03T03:54:17;-0.36;75.65
72928;SHT30;61071;51.618;19.388;2023-04-03T03:56:42;-0.35;75.55
72928;SHT30;61071;51.618;19.388;2023-04-03T03:59:08;-0.37;75.33
72928;SHT30;61071;51.618;19.388;2023-04-03T04:01:34;-0.46;75.72
72928;SHT30;61071;51.618;19.388;2023-04-03T04:03:59;-0.44;75.86
72928;SHT30;61071;51.618;19.388;2023-04-03T04:06:25;-0.36;75.44
72928;SHT30;61071;51.618;19.388;2023-04-03T04:08:51;-0.40;74.75
72928;SHT30;61071;51.618;19.388;2023-04-03T04:11:17;-0.42;75.65
72928;SHT30;61071;51.618;19.388;2023-04-03T04:13:42;-0.46;75.41
72928;SHT30;61071;51.618;19.388;2023-04-03T04:16:08;-0.53;75.53
72928;SHT30;61071;51.618;19.388;2023-04-03T04:18:35;-0.56;75.63
72928;SHT30;61071;51.618;19.388;2023-04-03T04:21:01;-0.54;75.51
72928;SHT30;61071;51.618;19.388;2023-04-03T04:23:26;-0.54;75.89
72928;SHT30;61071;51.618;19.388;2023-04-03T04:25:52;-0.46;75.48
72928;SHT30;61071;51.618;19.388;2023-04-03T04:28:18;-0.57;75.43
72928;SHT30;61071;51.618;19.388;2023-04-03T04:30:44;-0.69;75.59
72928;SHT30;61071;51.618;19.388;2023-04-03T04:33:10;-0.53;75.55
72928;SHT30;61071;51.618;19.388;2023-04-03T04:35:36;-0.57;75.14
72928;SHT30;61071;51.618;19.388;2023-04-03T04:38:01;-0.50;75.29
72928;SHT30;61071;51.618;19.388;2023-04-03T04:40:28;-0.44;74.87
72928;SHT30;61071;51.618;19.388;2023-04-03T04:42:54;-0.40;75.07
72928;SHT30;61071;51.618;19.388;2023-04-03T04:45:19;-0.57;75.16
72928;SHT30;61071;51.618;19.388;2023-04-03T04:47:45;-0.50;74.73
72928;SHT30;61071;51.618;19.388;2023-04-03T04:50:11;-0.60;74.67
72928;SHT30;61071;51.618;19.388;2023-04-03T04:52:38;-0.57;74.94
72928;SHT30;61071;51.618;19.388;2023-04-03T04:55:04;-0.54;74.56
72928;SHT30;61071;51.618;19.388;2023-04-03T04:57:30;-0.50;74.48
72928;SHT30;61071;51.618;19.388;2023-04-03T04:59:56;-0.57;74.42
72928;SHT30;61071;51.618;19.388;2023-04-03T05:02:21;-0.54;74.33
72928;SHT30;61071;51.618;19.388;2023-04-03T05:04:47;-0.54;74.60
72928;SHT30;61071;51.618;19.388;2023-04-03T05:07:15;-0.60;74.90
72928;SHT30;61071;51.618;19.388;2023-04-03T05:09:41;-0.60;74.60
72928;SHT30;61071;51.618;19.388;2023-04-03T05:12:08;-0.72;74.84
72928;SHT30;61071;51.618;19.388;2023-04-03T05:14:33;-0.57;75.24
72928;SHT30;61071;51.618;19.388;2023-04-03T05:16:59;-0.54;75.00
72928;SHT30;61071;51.618;19.388;2023-04-03T05:19:25;-0.25;73.93
72928;SHT30;61071;51.618;19.388;2023-04-03T05:21:50;-0.11;73.84
72928;SHT30;61071;51.618;19.388;2023-04-03T05:24:16;0.47;72.08
72928;SHT30;61071;51.618;19.388;2023-04-03T05:26:43;1.53;69.67
72928;SHT30;61071;51.618;19.388;2023-04-03T05:29:09;2.19;66.91
72928;SHT30;61071;51.618;19.388;2023-04-03T05:31:35;3.08;62.73
72928;SHT30;61071;51.618;19.388;2023-04-03T05:34:02;3.77;60.22
72928;SHT30;61071;51.618;19.388;2023-04-03T05:36:27;4.42;56.92
72928;SHT30;61071;51.618;19.388;2023-04-03T05:38:53;4.84;56.32
72928;SHT30;61071;51.618;19.388;2023-04-03T05:41:22;5.83;54.32
72928;SHT30;61071;51.618;19.388;2023-04-03T05:43:47;6.13;51.35
72928;SHT30;61071;51.618;19.388;2023-04-03T05:46:16;6.07;50.36
72928;SHT30;61071;51.618;19.388;2023-04-03T05:48:44;6.24;49.92
72928;SHT30;61071;51.618;19.388;2023-04-03T05:51:17;6.71;48.54
72928;SHT30;61071;51.618;19.388;2023-04-03T05:53:44;7.11;47.26
72928;SHT30;61071;51.618;19.388;2023-04-03T05:56:10;7.39;46.96
72928;SHT30;61071;51.618;19.388;2023-04-03T05:58:36;7.22;46.88
72928;SHT30;61071;51.618;19.388;2023-04-03T06:01:02;6.61;47.80
72928;SHT30;61071;51.618;19.388;2023-04-03T06:03:28;6.53;48.49
72928;SHT30;61071;51.618;19.388;2023-04-03T06:05:53;7.17;47.51
72928;SHT30;61071;51.618;19.388;2023-04-03T06:08:19;7.03;46.91
72928;SHT30;61071;51.618;19.388;2023-04-03T06:10:45;7.00;46.54
72928;SHT30;61071;51.618;19.388;2023-04-03T06:13:10;7.04;47.99
72928;SHT30;61071;51.618;19.388;2023-04-03T06:15:37;7.58;46.13
72928;SHT30;61071;51.618;19.388;2023-04-03T06:18:03;8.13;45.06
72928;SHT30;61071;51.618;19.388;2023-04-03T06:20:29;8.46;43.94
72928;SHT30;61071;51.618;19.388;2023-04-03T06:22:56;7.79;45.02
72928;SHT30;61071;51.618;19.388;2023-04-03T06:25:22;7.90;44.71
72928;SHT30;61071;51.618;19.388;2023-04-03T06:27:48;7.07;46.65
72928;SHT30;61071;51.618;19.388;2023-04-03T06:30:14;5.53;49.58
72928;SHT30;61071;51.618;19.388;2023-04-03T06:32:40;4.52;52.43
72928;SHT30;61071;51.618;19.388;2023-04-03T06:35:06;4.22;53.31
72928;SHT30;61071;51.618;19.388;2023-04-03T06:37:32;3.94;55.30
72928;SHT30;61071;51.618;19.388;2023-04-03T06:39:58;3.70;55.68
72928;SHT30;61071;51.618;19.388;2023-04-03T06:42:26;3.60;54.79
72928;SHT30;61071;51.618;19.388;2023-04-03T06:44:51;3.19;55.74
72928;SHT30;61071;51.618;19.388;2023-04-03T06:47:17;2.97;57.01
72928;SHT30;61071;51.618;19.388;2023-04-03T06:49:44;2.70;58.13
72928;SHT30;61071;51.618;19.388;2023-04-03T06:52:10;2.88;56.96
72928;SHT30;61071;51.618;19.388;2023-04-03T06:54:38;2.79;55.88
72928;SHT30;61071;51.618;19.388;2023-04-03T06:57:04;2.56;57.86
72928;SHT30;61071;51.618;19.388;2023-04-03T06:59:29;2.23;57.74
72928;SHT30;61071;51.618;19.388;2023-04-03T07:01:55;2.21;58.72
72928;SHT30;61071;51.618;19.388;2023-04-03T07:04:21;2.08;57.77
72928;SHT30;61071;51.618;19.388;2023-04-03T07:06:47;2.25;58.72
72928;SHT30;61071;51.618;19.388;2023-04-03T07:09:14;2.22;57.52
72928;SHT30;61071;51.618;19.388;2023-04-03T07:11:41;2.32;58.88
72928;SHT30;61071;51.618;19.388;2023-04-03T07:14:07;2.30;56.03
72928;SHT30;61071;51.618;19.388;2023-04-03T07:16:34;2.21;56.68
72928;SHT30;61071;51.618;19.388;2023-04-03T07:19:02;2.39;57.74
72928;SHT30;61071;51.618;19.388;2023-04-03T07:21:28;2.25;55.79
72928;SHT30;61071;51.618;19.388;2023-04-03T07:23:54;2.19;56.65
72928;SHT30;61071;51.618;19.388;2023-04-03T07:26:22;2.49;57.14
72928;SHT30;61071;51.618;19.388;2023-04-03T07:28:49;2.53;56.18
72928;SHT30;61071;51.618;19.388;2023-04-03T07:31:16;2.43;56.97
72928;SHT30;61071;51.618;19.388;2023-04-03T07:33:43;2.49;58.04
72928;SHT30;61071;51.618;19.388;2023-04-03T07:36:15;2.52;55.30
72928;SHT30;61071;51.618;19.388;2023-04-03T07:38:41;2.26;52.51
72928;SHT30;61071;51.618;19.388;2023-04-03T07:41:12;2.23;57.59
72928;SHT30;61071;51.618;19.388;2023-04-03T07:43:39;2.30;55.68
72928;SHT30;61071;51.618;19.388;2023-04-03T07:46:05;2.26;55.67
72928;SHT30;61071;51.618;19.388;2023-04-03T07:48:30;2.30;52.96
72928;SHT30;61071;51.618;19.388;2023-04-03T07:51:00;2.21;52.58
72928;SHT30;61071;51.618;19.388;2023-04-03T07:53:27;2.22;54.97
72928;SHT30;61071;51.618;19.388;2023-04-03T07:55:53;2.42;56.98
72928;SHT30;61071;51.618;19.388;2023-04-03T07:58:21;2.50;53.06
72928;SHT30;61071;51.618;19.388;2023-04-03T08:00:47;2.30;55.34
72928;SHT30;61071;51.618;19.388;2023-04-03T08:03:14;2.57;55.34
72928;SHT30;61071;51.618;19.388;2023-04-03T08:05:44;2.77;58.22
72928;SHT30;61071;51.618;19.388;2023-04-03T08:08:14;3.04;54.89
72928;SHT30;61071;51.618;19.388;2023-04-03T08:10:41;2.91;52.71
72928;SHT30;61071;51.618;19.388;2023-04-03T08:13:09;2.84;53.12
72928;SHT30;61071;51.618;19.388;2023-04-03T08:15:35;2.61;54.32
72928;SHT30;61071;51.618;19.388;2023-04-03T08:18:02;2.40;53.75
72928;SHT30;61071;51.618;19.388;2023-04-03T08:20:28;2.25;54.26
72928;SHT30;61071;51.618;19.388;2023-04-03T08:22:54;2.61;56.55
72928;SHT30;61071;51.618;19.388;2023-04-03T08:25:21;2.49;52.58
72928;SHT30;61071;51.618;19.388;2023-04-03T08:27:46;2.32;53.18
72928;SHT30;61071;51.618;19.388;2023-04-03T08:30:13;2.50;52.41
72928;SHT30;61071;51.618;19.388;2023-04-03T08:32:39;2.43;53.31
72928;SHT30;61071;51.618;19.388;2023-04-03T08:35:07;2.47;54.81
72928;SHT30;61071;51.618;19.388;2023-04-03T08:37:38;2.57;54.18
72928;SHT30;61071;51.618;19.388;2023-04-03T08:40:07;2.47;51.83
72928;SHT30;61071;51.618;19.388;2023-04-03T08:45:21;2.34;53.74
72928;SHT30;61071;51.618;19.388;2023-04-03T08:48:06;2.49;56.25
72928;SHT30;61071;51.618;19.388;2023-04-03T08:50:46;2.80;54.33
72928;SHT30;61071;51.618;19.388;2023-04-03T08:53:21;2.92;54.16
72928;SHT30;61071;51.618;19.388;2023-04-03T08:55:52;2.88;53.29
72928;SHT30;61071;51.618;19.388;2023-04-03T08:58:30;2.87;53.68
72928;SHT30;61071;51.618;19.388;2023-04-03T09:01:03;2.95;54.31
72928;SHT30;61071;51.618;19.388;2023-04-03T09:03:36;3.04;53.99
72928;SHT30;61071;51.618;19.388;2023-04-03T09:06:12;2.88;55.48
72928;SHT30;61071;51.618;19.388;2023-04-03T09:11:50;3.04;53.01
72928;SHT30;61071;51.618;19.388;2023-04-03T09:14:38;2.83;55.02
72928;SHT30;61071;51.618;19.388;2023-04-03T09:17:38;3.35;56.42
72928;SHT30;61071;51.618;19.388;2023-04-03T09:20:19;3.32;55.47
72928;SHT30;61071;51.618;19.388;2023-04-03T09:22:46;3.44;53.94
72928;SHT30;61071;51.618;19.388;2023-04-03T09:25:36;3.40;53.07
72928;SHT30;61071;51.618;19.388;2023-04-03T09:28:04;3.42;56.02
72928;SHT30;61071;51.618;19.388;2023-04-03T09:30:35;3.42;55.71
72928;SHT30;61071;51.618;19.388;2023-04-03T09:33:01;3.46;53.32
72928;SHT30;61071;51.618;19.388;2023-04-03T09:35:31;3.57;54.13
72928;SHT30;61071;51.618;19.388;2023-04-03T09:41:04;3.55;53.15
72928;SHT30;61071;51.618;19.388;2023-04-03T09:43:37;3.23;51.24
72928;SHT30;61071;51.618;19.388;2023-04-03T09:46:33;3.05;51.69
72928;SHT30;61071;51.618;19.388;2023-04-03T09:49:04;3.47;54.04
72928;SHT30;61071;51.618;19.388;2023-04-03T09:51:31;3.62;51.10
72928;SHT30;61071;51.618;19.388;2023-04-03T09:53:58;3.90;50.24
72928;SHT30;61071;51.618;19.388;2023-04-03T09:56:29;4.14;52.69
72928;SHT30;61071;51.618;19.388;2023-04-03T10:01:32;4.09;51.56
72928;SHT30;61071;51.618;19.388;2023-04-03T10:04:16;4.19;53.05
72928;SHT30;61071;51.618;19.388;2023-04-03T10:06:48;4.46;52.21
72928;SHT30;61071;51.618;19.388;2023-04-03T10:09:28;4.25;51.84
72928;SHT30;61071;51.618;19.388;2023-04-03T10:12:08;4.59;52.21
72928;SHT30;61071;51.618;19.388;2023-04-03T10:15:15;4.54;49.84
72928;SHT30;61071;51.618;19.388;2023-04-03T10:18:02;4.21;50.55
72928;SHT30;61071;51.618;19.388;2023-04-03T10:20:43;3.94;50.29
72928;SHT30;61071;51.618;19.388;2023-04-03T10:23:28;4.05;47.88
72928;SHT30;61071;51.618;19.388;2023-04-03T10:29:31;4.18;49.12
72928;SHT30;61071;51.618;19.388;2023-04-03T10:32:15;4.42;51.48
72928;SHT30;61071;51.618;19.388;2023-04-03T10:34:45;4.09;50.81
72928;SHT30;61071;51.618;19.388;2023-04-03T10:37:24;3.93;51.32
72928;SHT30;61071;51.618;19.388;2023-04-03T10:53:57;3.98;48.65
72928;SHT30;61071;51.618;19.388;2023-04-03T10:59:26;4.01;50.59
72928;SHT30;61071;51.618;19.388;2023-04-03T11:02:01;4.15;47.59
72928;SHT30;61071;51.618;19.388;2023-04-03T11:04:36;4.33;46.31
72928;SHT30;61071;51.618;19.388;2023-04-03T11:07:26;4.53;46.14
72928;SHT30;61071;51.618;19.388;2023-04-03T11:10:11;4.31;50.84
72928;SHT30;61071;51.618;19.388;2023-04-03T11:12:49;4.36;50.55
72928;SHT30;61071;51.618;19.388;2023-04-03T11:15:20;4.18;49.40
72928;SHT30;61071;51.618;19.388;2023-04-03T11:18:06;4.33;48.94
72928;SHT30;61071;51.618;19.388;2023-04-03T11:20:35;4.50;46.76
72928;SHT30;61071;51.618;19.388;2023-04-03T11:25:43;4.66;44.70
72928;SHT30;61071;51.618;19.388;2023-04-03T11:28:14;4.59;47.56
72928;SHT30;61071;51.618;19.388;2023-04-03T11:30:49;4.59;46.03
72928;SHT30;61071;51.618;19.388;2023-04-03T11:33:35;4.48;46.12
72928;SHT30;61071;51.618;19.388;2023-04-03T11:36:11;4.06;46.25
72928;SHT30;61071;51.618;19.388;2023-04-03T11:38:43;4.11;46.77
72928;SHT30;61071;51.618;19.388;2023-04-03T11:41:12;4.46;47.15
72928;SHT30;61071;51.618;19.388;2023-04-03T11:44:24;4.77;45.73
72928;SHT30;61071;51.618;19.388;2023-04-03T11:46:55;4.66;47.08
72928;SHT30;61071;51.618;19.388;2023-04-03T11:50:05;4.57;45.17
72928;SHT30;61071;51.618;19.388;2023-04-03T12:05:50;4.76;44.94
72928;SHT30;61071;51.618;19.388;2023-04-03T12:14:04;4.53;44.32
72928;SHT30;61071;51.618;19.388;2023-04-03T12:16:44;4.79;47.61
72928;SHT30;61071;51.618;19.388;2023-04-03T12:24:35;5.31;43.86
72928;SHT30;61071;51.618;19.388;2023-04-03T12:27:12;4.85;45.15
72928;SHT30;61071;51.618;19.388;2023-04-03T12:32:42;5.24;46.29
72928;SHT30;61071;51.618;19.388;2023-04-03T12:46:49;4.49;44.40
72928;SHT30;61071;51.618;19.388;2023-04-03T12:49:41;4.76;45.79
72928;SHT30;61071;51.618;19.388;2023-04-03T12:52:44;5.01;46.03
72928;SHT30;61071;51.618;19.388;2023-04-03T12:55:15;4.63;43.29
72928;SHT30;61071;51.618;19.388;2023-04-03T12:57:41;4.57;46.09
72928;SHT30;61071;51.618;19.388;2023-04-03T13:02:51;4.88;47.15
72928;SHT30;61071;51.618;19.388;2023-04-03T13:05:19;4.73;44.09
72928;SHT30;61071;51.618;19.388;2023-04-03T13:07:58;4.67;44.67
72928;SHT30;61071;51.618;19.388;2023-04-03T13:10:25;4.49;45.12
72928;SHT30;61071;51.618;19.388;2023-04-03T13:13:07;4.46;45.87
72928;SHT30;61071;51.618;19.388;2023-04-03T13:15:46;4.62;45.34
72928;SHT30;61071;51.618;19.388;2023-04-03T13:20:52;4.76;46.79
72928;SHT30;61071;51.618;19.388;2023-04-03T13:23:20;4.64;46.24
72928;SHT30;61071;51.618;19.388;2023-04-03T13:25:48;4.76;45.00
72928;SHT30;61071;51.618;19.388;2023-04-03T13:28:20;4.80;44.20
72928;SHT30;61071;51.618;19.388;2023-04-03T13:33:37;4.57;45.14
72928;SHT30;61071;51.618;19.388;2023-04-03T13:36:23;4.52;45.90
72928;SHT30;61071;51.618;19.388;2023-04-03T13:39:25;4.39;43.71
72928;SHT30;61071;51.618;19.388;2023-04-03T13:41:55;4.45;45.26
72928;SHT30;61071;51.618;19.388;2023-04-03T13:46:54;4.43;46.06
72928;SHT30;61071;51.618;19.388;2023-04-03T13:49:38;4.39;45.96
72928;SHT30;61071;51.618;19.388;2023-04-03T13:52:48;4.21;44.66
72928;SHT30;61071;51.618;19.388;2023-04-03T13:55:25;4.25;45.11
72928;SHT30;61071;51.618;19.388;2023-04-03T13:58:03;4.38;44.72
72928;SHT30;61071;51.618;19.388;2023-04-03T14:00:53;4.32;47.10
72928;SHT30;61071;51.618;19.388;2023-04-03T14:03:30;4.43;47.05
72928;SHT30;61071;51.618;19.388;2023-04-03T14:05:57;4.46;46.62
72928;SHT30;61071;51.618;19.388;2023-04-03T14:08:23;4.52;46.76
72928;SHT30;61071;51.618;19.388;2023-04-03T14:10:50;4.48;46.32
72928;SHT30;61071;51.618;19.388;2023-04-03T14:13:18;4.42;45.61
72928;SHT30;61071;51.618;19.388;2023-04-03T14:15:47;4.39;46.19
72928;SHT30;61071;51.618;19.388;2023-04-03T14:18:17;4.74;46.71
72928;SHT30;61071;51.618;19.388;2023-04-03T14:20:44;4.77;45.46
72928;SHT30;61071;51.618;19.388;2023-04-03T14:23:10;4.66;45.53
72928;SHT30;61071;51.618;19.388;2023-04-03T14:25:37;4.57;46.15
72928;SHT30;61071;51.618;19.388;2023-04-03T14:28:23;4.49;46.62
72928;SHT30;61071;51.618;19.388;2023-04-03T14:30:50;4.42;46.97
72928;SHT30;61071;51.618;19.388;2023-04-03T14:33:21;4.35;47.38
72928;SHT30;61071;51.618;19.388;2023-04-03T14:35:48;4.39;47.75
72928;SHT30;61071;51.618;19.388;2023-04-03T14:38:30;4.35;49.01
72928;SHT30;61071;51.618;19.388;2023-04-03T14:40:58;4.48;47.87
72928;SHT30;61071;51.618;19.388;2023-04-03T14:43:24;4.50;48.35
72928;SHT30;61071;51.618;19.388;2023-04-03T14:45:50;4.57;47.23
72928;SHT30;61071;51.618;19.388;2023-04-03T14:48:27;4.62;48.99
72928;SHT30;61071;51.618;19.388;2023-04-03T14:50:53;4.62;47.27
72928;SHT30;61071;51.618;19.388;2023-04-03T14:53:20;4.73;48.35
72928;SHT30;61071;51.618;19.388;2023-04-03T14:55:52;4.59;45.56
72928;SHT30;61071;51.618;19.388;2023-04-03T14:58:20;4.52;44.47
72928;SHT30;61071;51.618;19.388;2023-04-03T15:00:46;4.36;45.47
72928;SHT30;61071;51.618;19.388;2023-04-03T15:03:21;4.35;45.48
72928;SHT30;61071;51.618;19.388;2023-04-03T15:05:49;4.45;46.24
72928;SHT30;61071;51.618;19.388;2023-04-03T15:08:25;4.36;46.18
72928;SHT30;61071;51.618;19.388;2023-04-03T15:10:52;4.29;46.14
72928;SHT30;61071;51.618;19.388;2023-04-03T15:13:19;4.16;47.39
72928;SHT30;61071;51.618;19.388;2023-04-03T15:15:45;4.21;47.83
72928;SHT30;61071;51.618;19.388;2023-04-03T15:18:24;4.12;45.88
72928;SHT30;61071;51.618;19.388;2023-04-03T15:20:54;4.19;47.59
72928;SHT30;61071;51.618;19.388;2023-04-03T15:23:21;4.32;47.85
72928;SHT30;61071;51.618;19.388;2023-04-03T15:25:52;4.43;46.41
72928;SHT30;61071;51.618;19.388;2023-04-03T15:28:30;4.57;46.23
72928;SHT30;61071;51.618;19.388;2023-04-03T15:30:58;4.46;47.20
72928;SHT30;61071;51.618;19.388;2023-04-03T15:33:25;4.45;46.13
72928;SHT30;61071;51.618;19.388;2023-04-03T15:35:51;4.28;45.92
72928;SHT30;61071;51.618;19.388;2023-04-03T15:38:17;4.24;46.44
72928;SHT30;61071;51.618;19.388;2023-04-03T15:40:42;4.31;46.28
72928;SHT30;61071;51.618;19.388;2023-04-03T15:43:09;4.12;45.13
72928;SHT30;61071;51.618;19.388;2023-04-03T15:45:37;4.01;46.26
72928;SHT30;61071;51.618;19.388;2023-04-03T15:48:04;4.21;45.22
72928;SHT30;61071;51.618;19.388;2023-04-03T15:50:32;4.22;44.88
72928;SHT30;61071;51.618;19.388;2023-04-03T15:52:58;4.05;47.17
72928;SHT30;61071;51.618;19.388;2023-04-03T15:55:26;4.18;47.30
72928;SHT30;61071;51.618;19.388;2023-04-03T15:57:53;4.15;47.76
72928;SHT30;61071;51.618;19.388;2023-04-03T16:00:20;4.21;46.17
72928;SHT30;61071;51.618;19.388;2023-04-03T16:02:49;4.12;47.12
72928;SHT30;61071;51.618;19.388;2023-04-03T16:05:16;4.06;46.18
72928;SHT30;61071;51.618;19.388;2023-04-03T16:07:43;4.15;45.22
72928;SHT30;61071;51.618;19.388;2023-04-03T16:10:11;4.15;45.36
72928;SHT30;61071;51.618;19.388;2023-04-03T16:12:37;4.05;45.65
72928;SHT30;61071;51.618;19.388;2023-04-03T16:15:04;3.98;45.39
72928;SHT30;61071;51.618;19.388;2023-04-03T16:17:32;3.98;46.52
72928;SHT30;61071;51.618;19.388;2023-04-03T16:19:59;4.01;47.24
72928;SHT30;61071;51.618;19.388;2023-04-03T16:22:27;3.93;48.44
72928;SHT30;61071;51.618;19.388;2023-04-03T16:24:54;3.95;49.04
72928;SHT30;61071;51.618;19.388;2023-04-03T16:27:21;3.88;49.19
72928;SHT30;61071;51.618;19.388;2023-04-03T16:29:47;3.87;50.23
72928;SHT30;61071;51.618;19.388;2023-04-03T16:32:13;3.99;50.39
72928;SHT30;61071;51.618;19.388;2023-04-03T16:34:39;4.02;50.19
72928;SHT30;61071;51.618;19.388;2023-04-03T16:37:06;3.94;49.52
72928;SHT30;61071;51.618;19.388;2023-04-03T16:39:34;3.81;50.23
72928;SHT30;61071;51.618;19.388;2023-04-03T16:42:01;3.86;50.52
72928;SHT30;61071;51.618;19.388;2023-04-03T16:44:26;3.87;49.83
72928;SHT30;61071;51.618;19.388;2023-04-03T16:46:52;3.73;49.96
72928;SHT30;61071;51.618;19.388;2023-04-03T16:49:18;3.73;50.62
72928;SHT30;61071;51.618;19.388;2023-04-03T16:51:44;3.84;50.92
72928;SHT30;61071;51.618;19.388;2023-04-03T16:54:10;3.91;51.35
72928;SHT30;61071;51.618;19.388;2023-04-03T16:56:39;3.86;50.55
72928;SHT30;61071;51.618;19.388;2023-04-03T16:59:05;3.81;50.72
72928;SHT30;61071;51.618;19.388;2023-04-03T17:01:31;3.77;50.57
72928;SHT30;61071;51.618;19.388;2023-04-03T17:03:57;3.70;50.99
72928;SHT30;61071;51.618;19.388;2023-04-03T17:06:23;3.47;51.50
72928;SHT30;61071;51.618;19.388;2023-04-03T17:08:51;3.62;51.33
72928;SHT30;61071;51.618;19.388;2023-04-03T17:11:18;3.56;51.35
72928;SHT30;61071;51.618;19.388;2023-04-03T17:13:44;3.47;52.16
72928;SHT30;61071;51.618;19.388;2023-04-03T17:16:14;3.56;52.13
72928;SHT30;61071;51.618;19.388;2023-04-03T17:18:40;3.66;51.28